sensor_id;sensor_type;location;lat;lon;timestamp;pressure;altitude;pressure_sealevel;temperature;humidity
53940;BME280;39850;43.324;21.916;2024-01-30T00:03:20;1014.0;;;4.8;69.0
53940;BME280;39850;43.324;21.916;2024-01-30T00:07:56;1014.0;;;4.8;69.0
53940;BME280;39850;43.324;21.916;2024-01-30T00:12:32;1014.0;;;5.2;70.0
53940;BME280;39850;43.324;21.916;2024-01-30T00:17:08;1014.0;;;5.2;70.0
53940;BME280;39850;43.324;21.916;2024-01-30T00:21:44;1014.0;;;5.5;69.0
53940;BME280;39850;43.324;21.916;2024-01-30T00:26:20;1014.0;;;5.5;69.0
53940;BME280;39850;43.324;21.916;2024-01-30T00:30:56;1014.0;;;5.5;69.0
53940;BME280;39850;43.324;21.916;2024-01-30T00:35:33;1014.0;;;5.5;69.0
53940;BME280;39850;43.324;21.916;2024-01-30T00:40:10;1014.0;;;5.5;67.0
53940;BME280;39850;43.324;21.916;2024-01-30T00:44:47;1014.0;;;5.5;67.0
53940;BME280;39850;43.324;21.916;2024-01-30T01:21:35;1014.0;;;3.6;67.0
53940;BME280;39850;43.324;21.916;2024-01-30T01:26:13;1014.0;;;3.6;67.0
53940;BME280;39850;43.324;21.916;2024-01-30T01:30:50;1014.0;;;3.6;67.0
53940;BME280;39850;43.324;21.916;2024-01-30T01:35:26;1014.0;;;3.6;67.0
53940;BME280;39850;43.324;21.916;2024-01-30T01:40:09;1014.0;;;3.6;67.0
53940;BME280;39850;43.324;21.916;2024-01-30T01:44:45;1014.0;;;3.6;67.0
53940;BME280;39850;43.324;21.916;2024-01-30T01:49:28;1014.0;;;3.6;67.0
53940;BME280;39850;43.324;21.916;2024-01-30T01:54:08;1014.0;;;3.6;67.0
53940;BME280;39850;43.324;21.916;2024-01-30T01:58:54;1014.0;;;3.6;67.0
53940;BME280;39850;43.324;21.916;2024-01-30T02:03:35;1014.0;;;3.5;67.0
53940;BME280;39850;43.324;21.916;2024-01-30T02:08:11;1014.0;;;3.5;67.0
53940;BME280;39850;43.324;21.916;2024-01-30T02:49:38;1014.0;;;2.5;67.0
53940;BME280;39850;43.324;21.916;2024-01-30T02:54:15;1014.0;;;2.5;67.0
53940;BME280;39850;43.324;21.916;2024-01-30T02:58:51;1014.0;;;2.5;67.0
53940;BME280;39850;43.324;21.916;2024-01-30T03:03:27;1014.0;;;2.6;68.0
53940;BME280;39850;43.324;21.916;2024-01-30T03:08:05;1014.0;;;2.6;68.0
53940;BME280;39850;43.324;21.916;2024-01-30T03:12:42;1014.0;;;2.6;68.0
53940;BME280;39850;43.324;21.916;2024-01-30T03:17:18;1014.0;;;2.6;68.0
53940;BME280;39850;43.324;21.916;2024-01-30T03:21:54;1014.0;;;2.7;69.0
53940;BME280;39850;43.324;21.916;2024-01-30T03:26:30;1014.0;;;2.7;69.0
53940;BME280;39850;43.324;21.916;2024-01-30T04:03:21;1014.0;;;2.6;65.0
53940;BME280;39850;43.324;21.916;2024-01-30T04:07:58;1014.0;;;2.6;65.0
53940;BME280;39850;43.324;21.916;2024-01-30T04:12:35;1014.0;;;3.0;65.0
53940;BME280;39850;43.324;21.916;2024-01-30T04:17:12;1014.0;;;3.0;65.0
53940;BME280;39850;43.324;21.916;2024-01-30T04:21:48;1014.0;;;3.2;65.0
53940;BME280;39850;43.324;21.916;2024-01-30T04:26:25;1014.0;;;3.2;65.0
53940;BME280;39850;43.324;21.916;2024-01-30T04:31:02;1014.0;;;3.4;65.0
53940;BME280;39850;43.324;21.916;2024-01-30T04:35:40;1014.0;;;3.4;65.0
53940;BME280;39850;43.324;21.916;2024-01-30T04:40:17;1014.0;;;3.2;65.0
53940;BME280;39850;43.324;21.916;2024-01-30T04:44:53;1014.0;;;3.2;65.0
53940;BME280;39850;43.324;21.916;2024-01-30T04:49:30;1014.0;;;3.2;65.0
53940;BME280;39850;43.324;21.916;2024-01-30T05:21:45;1014.0;;;2.6;63.0
53940;BME280;39850;43.324;21.916;2024-01-30T05:26:21;1014.0;;;2.6;63.0
53940;BME280;39850;43.324;21.916;2024-01-30T05:30:57;1014.0;;;2.6;63.0
53940;BME280;39850;43.324;21.916;2024-01-30T05:35:33;1014.0;;;2.6;63.0
53940;BME280;39850;43.324;21.916;2024-01-30T05:40:12;1014.0;;;2.6;63.0
53940;BME280;39850;43.324;21.916;2024-01-30T05:44:48;1014.0;;;2.6;63.0
53940;BME280;39850;43.324;21.916;2024-01-30T05:49:24;1014.0;;;2.6;63.0
53940;BME280;39850;43.324;21.916;2024-01-30T05:54:00;1014.0;;;2.7;64.0
53940;BME280;39850;43.324;21.916;2024-01-30T05:58:36;1014.0;;;2.7;64.0
53940;BME280;39850;43.324;21.916;2024-01-30T06:03:13;1014.0;;;2.7;64.0
53940;BME280;39850;43.324;21.916;2024-01-30T06:07:49;1014.0;;;2.7;64.0
53940;BME280;39850;43.324;21.916;2024-01-30T06:44:37;1015.0;;;1.3;68.0
53940;BME280;39850;43.324;21.916;2024-01-30T06:49:14;1015.0;;;1.3;68.0
53940;BME280;39850;43.324;21.916;2024-01-30T06:53:50;1015.0;;;1.3;68.0
53940;BME280;39850;43.324;21.916;2024-01-30T06:58:27;1015.0;;;1.3;68.0
53940;BME280;39850;43.324;21.916;2024-01-30T07:03:05;1015.0;;;1.6;67.0
53940;BME280;39850;43.324;21.916;2024-01-30T07:07:41;1015.0;;;1.6;67.0
53940;BME280;39850;43.324;21.916;2024-01-30T07:12:18;1015.0;;;1.8;66.0
53940;BME280;39850;43.324;21.916;2024-01-30T07:16:55;1015.0;;;1.8;66.0
53940;BME280;39850;43.324;21.916;2024-01-30T07:21:31;1015.0;;;1.8;66.0
53940;BME280;39850;43.324;21.916;2024-01-30T07:26:09;1015.0;;;1.8;66.0
53940;BME280;39850;43.324;21.916;2024-01-30T08:03:05;1015.0;;;2.5;60.0
53940;BME280;39850;43.324;21.916;2024-01-30T08:07:42;1015.0;;;2.5;60.0
53940;BME280;39850;43.324;21.916;2024-01-30T08:12:18;1015.0;;;2.8;59.0
53940;BME280;39850;43.324;21.916;2024-01-30T08:16:54;1015.0;;;2.8;59.0
53940;BME280;39850;43.324;21.916;2024-01-30T08:21:31;1015.0;;;3.0;58.0
53940;BME280;39850;43.324;21.916;2024-01-30T08:26:07;1015.0;;;3.0;58.0
53940;BME280;39850;43.324;21.916;2024-01-30T08:30:44;1015.0;;;3.4;56.0
53940;BME280;39850;43.324;21.916;2024-01-30T08:35:20;1015.0;;;3.4;56.0
53940;BME280;39850;43.324;21.916;2024-01-30T08:39:56;1015.0;;;3.4;56.0
53940;BME280;39850;43.324;21.916;2024-01-30T08:44:33;1015.0;;;3.8;54.0
53940;BME280;39850;43.324;21.916;2024-01-30T08:49:09;1015.0;;;3.8;54.0
53940;BME280;39850;43.324;21.916;2024-01-30T09:21:22;1015.0;;;8.1;40.0
53940;BME280;39850;43.324;21.916;2024-01-30T09:25:59;1015.0;;;8.1;40.0
53940;BME280;39850;43.324;21.916;2024-01-30T09:30:36;1015.0;;;8.1;40.0
53940;BME280;39850;43.324;21.916;2024-01-30T09:35:12;1015.0;;;8.2;39.0
53940;BME280;39850;43.324;21.916;2024-01-30T09:39:48;1015.0;;;8.2;39.0
53940;BME280;39850;43.324;21.916;2024-01-30T09:44:29;1015.0;;;8.4;39.0
53940;BME280;39850;43.324;21.916;2024-01-30T09:49:10;1015.0;;;8.4;39.0
53940;BME280;39850;43.324;21.916;2024-01-30T09:53:49;1015.0;;;8.8;38.0
53940;BME280;39850;43.324;21.916;2024-01-30T09:58:29;1015.0;;;8.8;38.0
53940;BME280;39850;43.324;21.916;2024-01-30T10:03:05;1015.0;;;9.1;36.0
53940;BME280;39850;43.324;21.916;2024-01-30T10:07:53;1015.0;;;9.1;36.0
53940;BME280;39850;43.324;21.916;2024-01-30T10:45:13;1014.0;;;8.0;36.0
53940;BME280;39850;43.324;21.916;2024-01-30T10:49:53;1014.0;;;8.0;36.0
53940;BME280;39850;43.324;21.916;2024-01-30T10:54:36;1014.0;;;7.8;36.0
53940;BME280;39850;43.324;21.916;2024-01-30T10:59:15;1014.0;;;7.8;36.0
53940;BME280;39850;43.324;21.916;2024-01-30T11:03:55;1014.0;;;7.6;36.0
53940;BME280;39850;43.324;21.916;2024-01-30T11:08:33;1014.0;;;7.6;36.0
53940;BME280;39850;43.324;21.916;2024-01-30T11:13:14;1014.0;;;7.6;37.0
53940;BME280;39850;43.324;21.916;2024-01-30T11:17:52;1014.0;;;7.6;37.0
53940;BME280;39850;43.324;21.916;2024-01-30T11:22:31;1014.0;;;7.5;39.0
53940;BME280;39850;43.324;21.916;2024-01-30T11:27:10;1014.0;;;7.5;39.0
53940;BME280;39850;43.324;21.916;2024-01-30T12:04:23;1013.0;;;8.6;40.0
53940;BME280;39850;43.324;21.916;2024-01-30T12:09:03;1013.0;;;8.6;40.0
53940;BME280;39850;43.324;21.916;2024-01-30T12:13:39;1013.0;;;8.4;40.0
53940;BME280;39850;43.324;21.916;2024-01-30T12:18:19;1013.0;;;8.4;40.0
53940;BME280;39850;43.324;21.916;2024-01-30T12:22:55;1013.0;;;8.3;39.0
53940;BME280;39850;43.324;21.916;2024-01-30T12:27:32;1013.0;;;8.3;39.0
53940;BME280;39850;43.324;21.916;2024-01-30T12:32:08;1012.0;;;8.2;39.0
53940;BME280;39850;43.324;21.916;2024-01-30T12:36:50;1012.0;;;8.2;39.0
53940;BME280;39850;43.324;21.916;2024-01-30T12:41:27;1012.0;;;8.0;39.0
53940;BME280;39850;43.324;21.916;2024-01-30T12:46:05;1012.0;;;8.0;39.0
53940;BME280;39850;43.324;21.916;2024-01-30T12:50:42;1012.0;;;8.0;39.0
53940;BME280;39850;43.324;21.916;2024-01-30T13:22:54;1012.0;;;8.2;36.0
53940;BME280;39850;43.324;21.916;2024-01-30T13:27:31;1012.0;;;8.2;36.0
53940;BME280;39850;43.324;21.916;2024-01-30T13:32:07;1012.0;;;8.1;36.0
53940;BME280;39850;43.324;21.916;2024-01-30T13:36:43;1012.0;;;8.1;36.0
53940;BME280;39850;43.324;21.916;2024-01-30T13:41:19;1012.0;;;8.1;36.0
53940;BME280;39850;43.324;21.916;2024-01-30T13:45:56;1012.0;;;8.2;36.0
53940;BME280;39850;43.324;21.916;2024-01-30T13:50:32;1012.0;;;8.2;36.0
53940;BME280;39850;43.324;21.916;2024-01-30T13:55:08;1012.0;;;8.1;37.0
53940;BME280;39850;43.324;21.916;2024-01-30T13:59:45;1012.0;;;8.1;37.0
53940;BME280;39850;43.324;21.916;2024-01-30T14:04:21;1012.0;;;8.2;37.0
53940;BME280;39850;43.324;21.916;2024-01-30T14:08:57;1012.0;;;8.2;37.0
53940;BME280;39850;43.324;21.916;2024-01-30T14:45:45;1012.0;;;6.9;43.0
53940;BME280;39850;43.324;21.916;2024-01-30T14:50:21;1012.0;;;6.9;43.0
53940;BME280;39850;43.324;21.916;2024-01-30T14:54:58;1012.0;;;7.0;43.0
53940;BME280;39850;43.324;21.916;2024-01-30T14:59:34;1012.0;;;7.0;43.0
53940;BME280;39850;43.324;21.916;2024-01-30T15:04:11;1012.0;;;7.1;43.0
53940;BME280;39850;43.324;21.916;2024-01-30T15:08:48;1012.0;;;7.1;43.0
53940;BME280;39850;43.324;21.916;2024-01-30T15:13:25;1012.0;;;7.2;43.0
53940;BME280;39850;43.324;21.916;2024-01-30T15:18:01;1012.0;;;7.2;43.0
53940;BME280;39850;43.324;21.916;2024-01-30T15:22:39;1012.0;;;7.3;42.0
53940;BME280;39850;43.324;21.916;2024-01-30T15:27:16;1012.0;;;7.3;42.0
53940;BME280;39850;43.324;21.916;2024-01-30T16:04:07;1012.0;;;6.4;46.0
53940;BME280;39850;43.324;21.916;2024-01-30T16:08:43;1012.0;;;6.4;46.0
53940;BME280;39850;43.324;21.916;2024-01-30T16:13:19;1012.0;;;6.4;46.0
53940;BME280;39850;43.324;21.916;2024-01-30T16:17:55;1012.0;;;6.4;46.0
53940;BME280;39850;43.324;21.916;2024-01-30T16:22:32;1012.0;;;6.4;46.0
53940;BME280;39850;43.324;21.916;2024-01-30T16:27:08;1012.0;;;6.4;46.0
53940;BME280;39850;43.324;21.916;2024-01-30T16:31:45;1012.0;;;6.4;46.0
53940;BME280;39850;43.324;21.916;2024-01-30T16:36:21;1012.0;;;6.4;46.0
53940;BME280;39850;43.324;21.916;2024-01-30T16:40:57;1012.0;;;6.4;46.0
53940;BME280;39850;43.324;21.916;2024-01-30T16:45:33;1012.0;;;6.4;46.0
53940;BME280;39850;43.324;21.916;2024-01-30T16:50:10;1012.0;;;6.4;46.0
53940;BME280;39850;43.324;21.916;2024-01-30T17:22:21;1013.0;;;5.5;46.0
53940;BME280;39850;43.324;21.916;2024-01-30T17:26:57;1013.0;;;5.5;46.0
53940;BME280;39850;43.324;21.916;2024-01-30T17:31:33;1013.0;;;5.5;46.0
53940;BME280;39850;43.324;21.916;2024-01-30T17:36:10;1012.0;;;5.5;46.0
53940;BME280;39850;43.324;21.916;2024-01-30T17:40:46;1012.0;;;5.5;46.0
53940;BME280;39850;43.324;21.916;2024-01-30T17:45:22;1012.0;;;5.5;47.0
53940;BME280;39850;43.324;21.916;2024-01-30T17:49:58;1012.0;;;5.5;47.0
53940;BME280;39850;43.324;21.916;2024-01-30T17:54:35;1012.0;;;5.4;47.0
53940;BME280;39850;43.324;21.916;2024-01-30T17:59:11;1012.0;;;5.4;47.0
53940;BME280;39850;43.324;21.916;2024-01-30T18:03:48;1012.0;;;5.3;48.0
53940;BME280;39850;43.324;21.916;2024-01-30T18:08:24;1012.0;;;5.3;48.0
53940;BME280;39850;43.324;21.916;2024-01-30T18:45:18;1013.0;;;5.5;51.0
53940;BME280;39850;43.324;21.916;2024-01-30T18:49:54;1013.0;;;5.5;51.0
53940;BME280;39850;43.324;21.916;2024-01-30T18:54:31;1013.0;;;5.5;51.0
53940;BME280;39850;43.324;21.916;2024-01-30T18:59:07;1013.0;;;5.5;51.0
53940;BME280;39850;43.324;21.916;2024-01-30T19:03:43;1013.0;;;5.5;51.0
53940;BME280;39850;43.324;21.916;2024-01-30T19:08:19;1013.0;;;5.5;51.0
53940;BME280;39850;43.324;21.916;2024-01-30T19:12:55;1013.0;;;5.0;52.0
53940;BME280;39850;43.324;21.916;2024-01-30T19:17:31;1013.0;;;5.0;52.0
53940;BME280;39850;43.324;21.916;2024-01-30T19:22:07;1013.0;;;5.0;52.0
53940;BME280;39850;43.324;21.916;2024-01-30T19:26:43;1013.0;;;4.5;53.0
53940;BME280;39850;43.324;21.916;2024-01-30T19:31:19;1013.0;;;4.5;53.0
53940;BME280;39850;43.324;21.916;2024-01-30T20:03:35;1013.0;;;4.1;54.0
53940;BME280;39850;43.324;21.916;2024-01-30T20:08:11;1013.0;;;4.1;54.0
53940;BME280;39850;43.324;21.916;2024-01-30T20:12:47;1013.0;;;4.1;54.0
53940;BME280;39850;43.324;21.916;2024-01-30T20:17:23;1013.0;;;3.8;55.0
53940;BME280;39850;43.324;21.916;2024-01-30T20:21:59;1013.0;;;3.8;55.0
53940;BME280;39850;43.324;21.916;2024-01-30T20:26:35;1013.0;;;3.5;56.0
53940;BME280;39850;43.324;21.916;2024-01-30T20:31:12;1013.0;;;3.5;56.0
53940;BME280;39850;43.324;21.916;2024-01-30T20:35:48;1013.0;;;3.0;56.0
53940;BME280;39850;43.324;21.916;2024-01-30T20:40:25;1013.0;;;3.0;56.0
53940;BME280;39850;43.324;21.916;2024-01-30T20:45:04;1013.0;;;2.6;56.0
53940;BME280;39850;43.324;21.916;2024-01-30T20:49:41;1013.0;;;2.6;56.0
53940;BME280;39850;43.324;21.916;2024-01-30T21:26:30;1013.0;;;1.8;61.0
53940;BME280;39850;43.324;21.916;2024-01-30T21:31:09;1013.0;;;1.8;61.0
53940;BME280;39850;43.324;21.916;2024-01-30T21:35:45;1013.0;;;1.8;61.0
53940;BME280;39850;43.324;21.916;2024-01-30T21:40:21;1013.0;;;1.8;61.0
53940;BME280;39850;43.324;21.916;2024-01-30T21:44:57;1013.0;;;1.8;62.0
53940;BME280;39850;43.324;21.916;2024-01-30T21:49:33;1013.0;;;1.8;62.0
53940;BME280;39850;43.324;21.916;2024-01-30T21:54:09;1013.0;;;1.8;62.0
53940;BME280;39850;43.324;21.916;2024-01-30T21:58:47;1013.0;;;1.8;62.0
53940;BME280;39850;43.324;21.916;2024-01-30T22:03:23;1013.0;;;1.8;62.0
53940;BME280;39850;43.324;21.916;2024-01-30T22:08:00;1013.0;;;1.8;62.0
53940;BME280;39850;43.324;21.916;2024-01-30T22:12:36;1013.0;;;1.8;62.0
53940;BME280;39850;43.324;21.916;2024-01-30T22:44:48;1012.0;;;1.0;63.0
53940;BME280;39850;43.324;21.916;2024-01-30T22:49:24;1012.0;;;1.0;63.0
53940;BME280;39850;43.324;21.916;2024-01-30T22:54:01;1012.0;;;1.2;63.0
53940;BME280;39850;43.324;21.916;2024-01-30T22:58:37;1012.0;;;1.2;63.0
53940;BME280;39850;43.324;21.916;2024-01-30T23:03:14;1012.0;;;1.2;63.0
53940;BME280;39850;43.324;21.916;2024-01-30T23:07:51;1012.0;;;1.0;63.0
53940;BME280;39850;43.324;21.916;2024-01-30T23:12:27;1012.0;;;1.0;63.0
53940;BME280;39850;43.324;21.916;2024-01-30T23:17:04;1012.0;;;1.0;64.0
53940;BME280;39850;43.324;21.916;2024-01-30T23:21:41;1012.0;;;1.0;64.0
53940;BME280;39850;43.324;21.916;2024-01-30T23:26:18;1013.0;;;0.7;64.0
53940;BME280;39850;43.324;21.916;2024-01-30T23:30:55;1013.0;;;0.7;64.0
